Time;durP1;ratioP1;P1;durP2;ratioP2;P2;SDS_P1;SDS_P2;PMS_P1;PMS_P2;Temp;Humidity;BMP_temperature;BMP_pressure;BME280_temperature;BME280_humidity;BME280_pressure;Samples;Min_cycle;Max_cycle;Signal;HPM_P1;HPM_P2
2022/02/08 00:03:33;;;;;;;31.67;3.80;;;;;;;3.40;100.00;100889.46;5146699;57;1139005;-78
2022/02/08 00:08:39;;;;;;;23.17;3.77;;;;;;;3.41;100.00;100894.63;5127207;57;1138970;-76
2022/02/08 00:13:45;;;;;;;32.38;4.62;;;;;;;3.43;100.00;100900.65;5127012;57;1139014;-77
2022/02/08 00:18:50;;;;;;;15.57;2.57;;;;;;;3.43;100.00;100907.64;5127064;57;1138984;-72
2022/02/08 00:23:56;;;;;;;20.50;3.03;;;;;;;3.39;100.00;100912.59;5127223;57;1138962;-80
2022/02/08 00:29:02;;;;;;;27.33;3.97;;;;;;;3.33;100.00;100916.80;5127299;57;1138970;-76
2022/02/08 00:34:08;;;;;;;28.57;4.93;;;;;;;3.26;100.00;100920.55;5127464;57;1139040;-77
2022/02/08 00:39:14;;;;;;;17.93;3.43;;;;;;;3.22;100.00;100922.89;5131313;57;1138993;-74
2022/02/08 00:44:30;;;;;;;21.13;4.37;;;;;;;3.11;100.00;100922.03;5131682;57;1136966;-70
2022/02/08 00:49:33;;;;;;;26.10;3.63;;;;;;;3.07;100.00;100940.89;5130119;57;1137144;-73
2022/02/08 00:54:34;;;;;;;21.57;5.50;;;;;;;3.03;100.00;100943.72;5131097;57;1136937;-72
2022/02/08 00:59:41;;;;;;;20.17;3.43;;;;;;;3.01;100.00;100954.22;5131417;57;1136951;-76
2022/02/08 01:04:53;;;;;;;14.77;3.40;;;;;;;3.02;100.00;100971.61;5137470;57;1137114;-71
2022/02/08 01:09:59;;;;;;;10.40;2.57;;;;;;;3.04;100.00;100978.08;5155632;56;1136982;-76
2022/02/08 01:15:07;;;;;;;16.03;3.10;;;;;;;3.08;100.00;100977.88;5155774;57;1137224;-75
2022/02/08 01:20:20;;;;;;;16.70;3.80;;;;;;;3.12;100.00;100976.00;5155824;57;1137010;-73
2022/02/08 01:25:34;;;;;;;20.07;3.60;;;;;;;3.14;100.00;100990.72;5155545;57;1136962;-72
2022/02/08 01:30:44;;;;;;;21.00;4.23;;;;;;;3.11;100.00;100998.67;5154195;57;1136968;-74
2022/02/08 01:41:04;;;;;;;24.13;4.73;;;;;;;3.15;100.00;101006.80;5151427;57;1137093;-74
2022/02/08 01:51:00;;;;;;;20.77;3.17;;;;;;;3.21;100.00;101022.67;5151495;57;1137036;-77
2022/02/08 01:56:07;;;;;;;18.47;2.77;;;;;;;3.24;100.00;101021.25;5151948;57;1134845;-75
2022/02/08 02:01:15;;;;;;;18.12;3.67;;;;;;;3.22;100.00;101025.69;5161216;57;1138938;-72
2022/02/08 02:06:20;;;;;;;8.00;2.47;;;;;;;3.24;100.00;101031.70;5069778;57;1139648;-77
2022/02/08 02:11:26;;;;;;;16.95;2.70;;;;;;;3.26;100.00;101044.72;5152199;57;1136869;-74
2022/02/08 02:17:17;;;;;;;25.17;6.25;;;;;;;3.28;100.00;101050.28;5152185;57;1139191;-79
2022/02/08 02:21:43;;;;;;;11.67;2.60;;;;;;;3.30;100.00;101061.54;5131733;57;1139317;-76
2022/02/08 02:26:50;;;;;;;16.87;3.75;;;;;;;3.29;100.00;101065.52;5151716;57;1139008;-71
2022/02/08 02:31:56;;;;;;;23.03;2.37;;;;;;;3.31;100.00;101075.47;5151803;57;1139015;-76
2022/02/08 02:37:05;;;;;;;25.20;4.07;;;;;;;3.31;100.00;101083.30;5155072;56;1139058;-74
2022/02/08 02:42:20;;;;;;;21.13;3.07;;;;;;;3.31;100.00;101083.30;5156480;57;1139161;-73
2022/02/08 02:47:26;;;;;;;12.37;2.13;;;;;;;3.29;100.00;101082.51;5156179;57;1139146;-78
2022/02/08 02:52:31;;;;;;;17.83;4.10;;;;;;;3.30;100.00;101087.68;5156187;57;1139056;-78
2022/02/08 02:57:38;;;;;;;19.60;3.83;;;;;;;3.31;100.00;101098.99;5156069;57;1139043;-78
2022/02/08 03:02:50;;;;;;;19.87;2.60;;;;;;;3.32;100.00;101098.08;5156009;57;1139059;-75
2022/02/08 03:18:41;;;;;;;19.33;3.27;;;;;;;3.25;100.00;101128.81;5156160;57;1139277;-76
2022/02/08 03:23:47;;;;;;;19.10;2.47;;;;;;;3.19;100.00;101132.98;5156173;57;1139286;-75
2022/02/08 03:28:53;;;;;;;15.27;2.37;;;;;;;3.07;100.00;101142.11;5155993;57;1139042;-73
2022/02/08 03:34:01;;;;;;;18.63;3.53;;;;;;;3.00;100.00;101142.41;5155094;57;1139016;-77
2022/02/08 03:39:15;;;;;;;16.67;3.90;;;;;;;2.85;100.00;101142.51;5151918;57;1139090;-78
2022/02/08 03:44:21;;;;;;;19.43;3.50;;;;;;;2.62;100.00;101147.22;5151217;57;1138930;-73
2022/02/08 03:49:26;;;;;;;15.00;3.17;;;;;;;2.46;100.00;101157.34;5151503;57;1139038;-74
2022/02/08 03:54:32;;;;;;;16.77;3.27;;;;;;;2.31;100.00;101147.86;5151697;57;1139135;-74
2022/02/08 03:59:38;;;;;;;23.53;3.50;;;;;;;2.33;100.00;101164.33;5119291;57;1139028;-78
2022/02/08 04:04:51;;;;;;;25.93;4.77;;;;;;;2.31;100.00;101170.05;5151459;57;1139008;-73
2022/02/08 04:10:00;;;;;;;10.53;2.50;;;;;;;2.27;100.00;101173.23;5132669;57;1139047;-79
2022/02/08 04:37:09;;;;;;;20.73;4.53;;;;;;;2.22;100.00;101186.02;5129477;57;1137109;-78
2022/02/08 04:41:26;;;;;;;16.33;2.90;;;;;;;2.24;100.00;101183.77;5102927;57;1136894;-75
2022/02/08 04:46:42;;;;;;;30.73;2.93;;;;;;;2.27;100.00;101181.06;5126065;57;1136912;-81
2022/02/08 04:51:46;;;;;;;19.50;3.00;;;;;;;2.28;100.00;101190.61;5124923;57;1136862;-73
2022/02/08 04:57:09;;;;;;;16.57;3.65;;;;;;;2.29;100.00;101190.16;5125790;57;1135053;-74
2022/02/08 05:02:26;;;;;;;11.83;2.27;;;;;;;2.28;100.00;101182.77;5126006;57;1138899;-75
2022/02/08 05:44:44;;;;;;;20.87;3.40;;;;;;;2.41;100.00;101170.16;5130137;57;1138984;-78
2022/02/08 05:55:00;;;;;;;25.53;3.67;;;;;;;2.44;100.00;101151.31;5009184;58;1139090;-80
2022/02/08 06:00:07;;;;;;;11.47;2.53;;;;;;;2.47;100.00;101159.50;5084392;57;1139239;-85
2022/02/08 06:05:18;;;;;;;24.57;4.03;;;;;;;2.50;100.00;101141.58;5074185;57;1139616;-81
2022/02/08 06:10:22;;;;;;;29.97;4.17;;;;;;;2.52;100.00;101155.44;5066958;57;1139029;-82
2022/02/08 06:15:27;;;;;;;12.67;2.30;;;;;;;2.51;100.00;101147.20;5054760;57;1137409;-83
2022/02/08 06:20:34;;;;;;;20.23;4.43;;;;;;;2.46;100.00;101146.04;5048882;58;1136855;-72
2022/02/08 06:25:40;;;;;;;20.33;5.53;;;;;;;2.50;100.00;101155.94;5049125;58;1136921;-71
2022/02/08 06:30:47;;;;;;;17.73;4.20;;;;;;;2.47;100.00;101143.83;5049517;57;1136926;-80
2022/02/08 06:35:53;;;;;;;25.27;4.67;;;;;;;2.47;100.00;101135.55;5086625;57;1136895;-76
2022/02/08 06:40:58;;;;;;;19.20;2.77;;;;;;;2.48;100.00;101127.27;5127740;57;1137064;-78
2022/02/08 06:46:04;;;;;;;10.67;2.80;;;;;;;2.52;100.00;101124.10;5127779;57;1136906;-77
2022/02/08 06:51:09;;;;;;;17.63;4.47;;;;;;;2.54;100.00;101127.06;5127941;57;1136904;-72
2022/02/08 06:56:15;;;;;;;19.47;4.50;;;;;;;2.56;100.00;101113.50;5127572;57;1136977;-81
2022/02/08 07:01:26;;;;;;;14.60;2.63;;;;;;;2.58;100.00;101112.16;5127420;57;1136964;-75
2022/02/08 07:06:28;;;;;;;10.48;2.47;;;;;;;2.58;100.00;101099.09;5127161;57;1136955;-79
2022/02/08 07:11:33;;;;;;;9.70;2.27;;;;;;;2.57;100.00;101098.69;5142269;57;1136881;-79
2022/02/08 07:16:39;;;;;;;20.80;2.63;;;;;;;2.60;100.00;101094.67;5153430;57;1135076;-74
2022/02/08 07:21:45;;;;;;;22.10;2.93;;;;;;;2.61;100.00;101083.30;5114574;57;1136940;-72
2022/02/08 07:26:51;;;;;;;21.13;4.17;;;;;;;2.65;100.00;101091.42;5150565;56;1136907;-78
2022/02/08 07:32:00;;;;;;;21.47;2.63;;;;;;;2.70;100.00;101083.84;5156266;57;1137007;-77
2022/02/08 07:37:18;;;;;;;8.93;3.20;;;;;;;2.72;100.00;101079.87;5122369;57;1136938;-80
2022/02/08 07:42:18;;;;;;;20.97;5.47;;;;;;;2.73;100.00;101071.13;5155967;56;1132749;-76
2022/02/08 07:47:26;;;;;;;24.13;6.43;;;;;;;2.77;100.00;101084.45;5156497;56;1138936;-79
2022/02/08 07:52:31;;;;;;;27.47;15.33;;;;;;;2.80;100.00;101094.79;5156476;57;1138986;-69
2022/02/08 07:57:37;;;;;;;40.33;19.57;;;;;;;2.78;100.00;101080.93;5156423;57;1141032;-79
2022/02/08 08:02:44;;;;;;;106.22;56.18;;;;;;;2.82;100.00;101089.91;5156713;56;1141064;-79
2022/02/08 08:07:50;;;;;;;209.07;118.20;;;;;;;2.85;100.00;101078.50;5156506;57;1143219;-79
2022/02/08 08:12:56;;;;;;;59.67;35.70;;;;;;;2.87;100.00;101071.47;5138954;57;1145256;-80
2022/02/08 08:18:15;;;;;;;39.33;14.50;;;;;;;2.89;100.00;101076.19;5131791;57;1141055;-73
2022/02/08 08:23:09;;;;;;;53.23;33.90;;;;;;;2.89;100.00;101059.66;5129744;57;1141289;-78
2022/02/08 08:28:15;;;;;;;163.70;39.27;;;;;;;2.91;100.00;101074.34;5131713;56;1141533;-73
2022/02/08 08:33:20;;;;;;;88.57;19.67;;;;;;;2.94;100.00;101075.99;5131617;57;1143185;-79
2022/02/08 08:38:28;;;;;;;43.10;8.37;;;;;;;2.98;100.00;101067.14;5127344;57;1141195;-82
2022/02/08 08:49:23;;;;;;;21.43;4.67;;;;;;;3.08;100.00;101053.66;5127395;57;1141193;-75
2022/02/08 08:54:14;;;;;;;25.33;6.77;;;;;;;3.12;100.00;101038.27;5112363;57;1139023;-79
2022/02/08 08:59:21;;;;;;;14.07;4.10;;;;;;;3.18;100.00;101041.96;5131606;56;1138870;-82
2022/02/08 09:04:33;;;;;;;37.27;8.60;;;;;;;3.23;100.00;101040.45;5132301;57;1139121;-78
2022/02/08 09:09:38;;;;;;;36.90;6.50;;;;;;;3.29;100.00;101031.53;5131077;57;1138864;-73
2022/02/08 09:15:37;;;;;;;43.90;10.47;;;;;;;3.34;100.00;101025.68;5124839;57;1138999;-71
2022/02/08 09:30:43;;;;;;;17.03;4.00;;;;;;;3.42;100.00;100999.61;5152079;57;1139033;-72
2022/02/08 09:35:41;;;;;;;22.97;7.03;;;;;;;3.47;100.00;100980.67;5151611;57;1139003;-74
2022/02/08 09:40:48;;;;;;;16.60;2.80;;;;;;;3.53;100.00;100986.09;5135052;57;1138987;-70
2022/02/08 09:45:53;;;;;;;27.10;5.40;;;;;;;3.56;100.00;100981.20;5113886;57;1139018;-71
2022/02/08 09:50:59;;;;;;;18.27;7.93;;;;;;;3.58;100.00;100974.98;5072616;57;1139212;-70
2022/02/08 09:56:07;;;;;;;84.97;25.37;;;;;;;3.59;100.00;100988.92;5114105;57;1139043;-73
2022/02/08 10:01:16;;;;;;;50.77;10.73;;;;;;;3.59;100.00;101001.54;5126927;57;1139042;-71
2022/02/08 10:06:24;;;;;;;27.37;7.27;;;;;;;3.58;100.00;100980.22;5145029;57;1139058;-70
2022/02/08 10:11:40;;;;;;;21.13;6.00;;;;;;;3.51;100.00;100971.77;5122678;57;1136896;-73
2022/02/08 10:22:10;;;;;;;30.80;7.40;;;;;;;3.42;100.00;100947.77;5117664;57;1136947;-71
2022/02/08 10:28:11;;;;;;;18.90;6.10;;;;;;;3.37;100.00;100953.18;5097578;57;1137032;-71
2022/02/08 10:37:50;;;;;;;11.53;4.30;;;;;;;3.44;100.00;100956.41;5127012;57;1136944;-72
2022/02/08 10:43:08;;;;;;;10.93;4.27;;;;;;;3.45;100.00;100936.73;5119979;57;1135091;-70
2022/02/08 10:48:25;;;;;;;8.00;3.77;;;;;;;3.48;100.00;100923.55;5112769;56;1138975;-72
2022/02/08 10:53:30;;;;;;;12.87;4.30;;;;;;;3.52;100.00;100901.55;5112246;57;1137006;-73
2022/02/08 10:58:37;;;;;;;11.17;5.30;;;;;;;3.54;100.00;100894.50;5117274;57;1139223;-70
2022/02/08 11:03:50;;;;;;;24.43;9.10;;;;;;;3.59;100.00;100879.08;5106841;57;1138967;-72
2022/02/08 11:09:09;;;;;;;40.10;10.90;;;;;;;3.60;100.00;100880.78;5125393;56;1138968;-74
2022/02/08 11:19:53;;;;;;;233.93;113.10;;;;;;;3.59;100.00;100890.84;5112929;57;1141146;-71
2022/02/08 11:25:21;;;;;;;93.70;24.47;;;;;;;3.60;100.00;100864.63;5111012;56;1145252;-74
2022/02/08 11:30:48;;;;;;;36.13;10.43;;;;;;;3.65;100.00;100869.22;5113209;57;1141088;-72
2022/02/08 11:58:06;;;;;;;21.90;8.77;;;;;;;3.77;100.00;100824.20;5109481;57;1136794;-72
2022/02/08 12:02:58;;;;;;;24.23;7.10;;;;;;;3.80;100.00;100828.45;5109864;57;1136906;-74
2022/02/08 12:08:00;;;;;;;16.63;6.10;;;;;;;3.84;100.00;100824.30;5108286;57;1136890;-73
2022/02/08 12:56:50;;;;;;;8.27;4.60;;;;;;;4.09;100.00;100777.41;5131378;57;1136903;-71
2022/02/08 13:02:16;;;;;;;6.33;3.30;;;;;;;4.08;100.00;100789.64;5127110;57;1136873;-72
2022/02/08 14:06:55;;;;;;;5.97;3.40;;;;;;;4.50;100.00;100751.85;5127248;57;1136950;-72
2022/02/08 14:17:28;;;;;;;12.43;5.03;;;;;;;4.61;100.00;100757.41;5127272;57;1136774;-74
2022/02/08 14:32:59;;;;;;;30.03;20.97;;;;;;;4.79;100.00;100728.14;5048702;58;1134863;-71
2022/02/08 14:49:08;;;;;;;79.83;53.80;;;;;;;4.92;100.00;100730.06;5127654;57;1138987;-72
2022/02/08 15:09:58;;;;;;;33.73;11.50;;;;;;;5.14;100.00;100720.64;5127475;57;1145766;-71
2022/02/08 15:15:14;;;;;;;189.60;61.97;;;;;;;5.19;100.00;100709.47;5127283;57;1141099;-73
2022/02/08 15:20:12;;;;;;;105.67;32.67;;;;;;;5.29;100.00;100717.69;5101711;57;1143246;-71
2022/02/08 15:25:18;;;;;;;116.73;40.03;;;;;;;5.35;100.00;100704.23;5101919;57;1143413;-72
2022/02/08 15:30:24;;;;;;;28.43;13.83;;;;;;;5.40;100.00;100709.23;5101984;57;1143278;-73
2022/02/08 15:35:35;;;;;;;14.77;6.37;;;;;;;5.48;100.00;100703.98;5103610;56;1141151;-73
2022/02/08 15:40:38;;;;;;;5.90;5.07;;;;;;;5.53;100.00;100711.13;5105873;57;1139199;-72
2022/02/08 15:45:59;;;;;;;14.20;6.97;;;;;;;5.60;100.00;100709.03;5130839;57;1137222;-73
2022/02/08 15:51:15;;;;;;;8.88;4.78;;;;;;;5.66;100.00;100700.80;5107699;57;1139084;-75
2022/02/08 16:18:07;;;;;;;66.07;30.10;;;;;;;5.99;100.00;100713.43;5112833;57;1141333;-71
2022/02/08 16:23:14;;;;;;;87.77;28.43;;;;;;;6.06;100.00;100710.02;5110312;57;1141408;-71
2022/02/08 16:28:41;;;;;;;156.97;59.33;;;;;;;6.13;100.00;100715.28;5127241;57;1139081;-73
2022/02/08 16:59:36;;;;;;;6.33;4.00;;;;;;;6.41;100.00;100732.14;5048723;57;1139044;-73
2022/02/08 17:04:41;;;;;;;9.53;5.43;;;;;;;6.43;100.00;100743.38;5126971;57;1136976;-72
2022/02/08 17:09:57;;;;;;;5.57;4.43;;;;;;;6.46;100.00;100758.50;5127152;57;1138925;-74
2022/02/08 17:52:17;;;;;;;6.33;5.70;;;;;;;6.76;100.00;100796.64;5156621;56;1139237;-75
2022/02/08 17:57:24;;;;;;;6.73;3.80;;;;;;;6.81;100.00;100813.48;5156648;56;1139129;-74
2022/02/08 18:02:30;;;;;;;9.27;3.97;;;;;;;6.84;100.00;100822.51;5156403;57;1139257;-75
2022/02/08 18:07:36;;;;;;;3.63;2.43;;;;;;;6.91;100.00;100819.89;5156427;57;1139415;-72
2022/02/08 18:12:44;;;;;;;2.60;2.10;;;;;;;6.97;100.00;100828.75;5156418;56;1139220;-73
2022/02/08 18:17:56;;;;;;;2.20;2.10;;;;;;;7.01;100.00;100840.80;5156330;57;1139140;-72
2022/02/08 19:11:49;;;;;;;8.97;5.33;;;;;;;6.91;100.00;100908.81;5156200;56;1138936;-73
2022/02/08 19:21:34;;;;;;;2.90;2.40;;;;;;;6.80;100.00;100910.36;5157574;56;1138882;-73
2022/02/08 19:26:28;;;;;;;5.47;2.17;;;;;;;6.77;100.00;100921.89;5152495;57;1139096;-75
2022/02/08 19:31:34;;;;;;;10.00;4.40;;;;;;;6.74;100.00;100929.09;5155683;57;1138978;-74
2022/02/08 19:36:42;;;;;;;3.87;2.43;;;;;;;6.70;100.00;100937.63;5153060;57;1141300;-72
2022/02/08 19:41:48;;;;;;;6.77;2.53;;;;;;;6.70;100.00;100941.58;5151564;57;1139266;-75
2022/02/08 19:46:56;;;;;;;8.97;3.70;;;;;;;6.68;100.00;100960.05;5151489;57;1139080;-73
2022/02/08 19:52:01;;;;;;;11.20;5.40;;;;;;;6.63;100.00;100963.39;5143817;57;1138993;-75
2022/02/08 19:57:19;;;;;;;5.10;2.60;;;;;;;6.59;100.00;100971.05;5151692;57;1141087;-73
2022/02/08 20:02:23;;;;;;;3.33;2.47;;;;;;;6.54;100.00;100994.12;5149769;57;1139150;-72
2022/02/08 20:07:26;;;;;;;8.63;3.00;;;;;;;6.48;100.00;101000.15;5152599;57;1139412;-81
2022/02/08 20:12:32;;;;;;;5.70;2.40;;;;;;;6.43;100.00;101012.67;5154806;57;1138987;-79
2022/02/08 20:17:41;;;;;;;6.67;3.30;;;;;;;6.37;100.00;101019.58;5122417;57;1138945;-72
2022/02/08 20:22:52;;;;;;;4.33;3.20;;;;;;;6.31;100.00;101032.55;5154305;57;1139072;-77
2022/02/08 20:28:12;;;;;;;10.03;4.30;;;;;;;6.27;100.00;101042.36;5154781;57;1139166;-77
2022/02/08 20:33:04;;;;;;;16.27;5.00;;;;;;;6.24;100.00;101043.86;5151743;57;1141016;-77
2022/02/08 20:38:14;;;;;;;6.07;2.80;;;;;;;6.18;100.00;101050.72;5154144;56;1141004;-75
2022/02/08 20:43:19;;;;;;;4.97;2.03;;;;;;;6.12;100.00;101058.05;5155182;57;1138992;-72
2022/02/08 20:48:27;;;;;;;9.07;2.47;;;;;;;6.07;100.00;101063.55;5153075;57;1136907;-73
2022/02/08 20:59:05;;;;;;;3.97;1.63;;;;;;;6.00;100.00;101076.12;5155618;57;1136951;-74
2022/02/08 21:04:02;;;;;;;2.50;1.47;;;;;;;5.97;100.00;101084.61;5155634;57;1137018;-80
2022/02/08 21:09:08;;;;;;;4.97;1.80;;;;;;;5.93;100.00;101094.44;5155619;57;1136926;-75
2022/02/08 21:14:27;;;;;;;6.13;1.83;;;;;;;5.88;100.00;101096.42;5155322;56;1136968;-75
2022/02/08 21:19:30;;;;;;;4.17;2.10;;;;;;;5.82;100.00;101100.63;5147192;57;1136892;-76
2022/02/08 21:24:54;;;;;;;4.20;2.03;;;;;;;5.77;100.00;101107.89;5130020;57;1136957;-75
2022/02/08 21:51:53;;;;;;;3.57;1.80;;;;;;;5.63;100.00;101140.50;5130266;56;1138917;-71
2022/02/08 21:56:55;;;;;;;4.67;1.50;;;;;;;5.66;100.00;101141.64;5130512;56;1139200;-81
2022/02/08 22:01:59;;;;;;;5.20;1.87;;;;;;;5.66;100.00;101135.08;5131480;56;1138846;-77
2022/02/08 22:07:06;;;;;;;8.77;2.70;;;;;;;5.65;100.00;101146.04;5130659;56;1139022;-77
2022/02/08 22:23:15;;;;;;;9.27;2.30;;;;;;;5.61;100.00;101155.47;5130463;57;1139467;-71
2022/02/08 22:28:19;;;;;;;4.93;2.03;;;;;;;5.64;100.00;101161.89;5126558;57;1138889;-75
2022/02/08 22:33:13;;;;;;;9.27;1.80;;;;;;;5.66;100.00;101160.86;5129560;57;1139256;-78
2022/02/08 22:38:37;;;;;;;10.60;2.27;;;;;;;5.75;100.00;101164.00;5126942;57;1138974;-79
2022/02/08 22:43:47;;;;;;;7.83;1.73;;;;;;;5.75;100.00;101171.41;5127250;57;1141083;-75
2022/02/08 22:48:47;;;;;;;5.63;1.93;;;;;;;5.75;100.00;101168.78;5126749;57;1139329;-73
2022/02/08 22:53:53;;;;;;;6.07;2.33;;;;;;;5.77;100.00;101154.28;5127016;57;1136837;-78
2022/02/08 22:58:59;;;;;;;7.40;2.20;;;;;;;5.74;100.00;101164.92;5126753;57;1136900;-77
2022/02/08 23:04:04;;;;;;;4.80;1.80;;;;;;;5.73;100.00;101168.46;5127498;57;1136888;-75
2022/02/08 23:09:16;;;;;;;6.47;1.93;;;;;;;5.74;100.00;101192.02;5127152;57;1136919;-78
2022/02/08 23:14:22;;;;;;;7.00;1.80;;;;;;;5.77;100.00;101186.63;5126738;57;1137123;-82
2022/02/08 23:40:59;;;;;;;9.80;1.92;;;;;;;5.75;100.00;101204.68;5156660;56;1141162;-72
2022/02/08 23:46:05;;;;;;;13.90;5.33;;;;;;;5.69;100.00;101212.82;5155876;57;1139096;-75
2022/02/08 23:51:21;;;;;;;10.40;2.73;;;;;;;5.68;100.00;101217.22;5156061;57;1141083;-80
2022/02/08 23:56:38;;;;;;;5.60;1.87;;;;;;;5.72;100.00;101216.63;5155505;57;1141140;-80
